createdAt,value
2017-12-13T00:00:52.406Z,2.75
2017-12-13T00:01:52.922Z,2.83
2017-12-13T00:02:52.479Z,2.83
2017-12-13T00:03:52.702Z,2.8
2017-12-13T00:04:52.713Z,2.93
2017-12-13T00:05:52.717Z,2.74
2017-12-13T00:06:52.983Z,2.74
2017-12-13T00:07:52.791Z,2.69
2017-12-13T00:08:53.012Z,2.74
2017-12-13T00:09:52.770Z,2.71
2017-12-13T00:10:52.782Z,2.64
2017-12-13T00:11:52.542Z,2.67
2017-12-13T00:12:52.808Z,2.64
2017-12-13T00:13:52.822Z,2.74
2017-12-13T00:14:52.839Z,2.6
2017-12-13T00:15:52.848Z,2.54
2017-12-13T00:16:53.171Z,2.6
2017-12-13T00:17:53.926Z,2.61
2017-12-13T00:18:52.889Z,2.6
2017-12-13T00:19:52.642Z,2.67
2017-12-13T00:20:52.907Z,2.61
2017-12-13T00:21:52.919Z,2.62
2017-12-13T00:22:53.182Z,2.65
2017-12-13T00:23:53.196Z,2.69
2017-12-13T00:24:53.212Z,2.69
2017-12-13T00:25:53.219Z,2.68
2017-12-13T00:26:52.983Z,2.71
2017-12-13T00:27:53.247Z,2.89
2017-12-13T00:28:53.264Z,2.82
2017-12-13T00:29:53.272Z,2.77
2017-12-13T00:30:53.048Z,2.79
2017-12-13T00:31:53.294Z,2.77
2017-12-13T00:32:53.122Z,2.82
2017-12-13T00:33:53.067Z,2.8
2017-12-13T00:34:53.332Z,2.71
2017-12-13T00:35:53.354Z,2.69
2017-12-13T00:36:53.354Z,2.68
2017-12-13T00:37:53.181Z,2.74
2017-12-13T00:38:53.391Z,2.69
2017-12-13T00:39:53.394Z,2.65
2017-12-13T00:40:53.160Z,2.69
2017-12-13T00:41:53.417Z,2.71
2017-12-13T00:42:53.179Z,2.74
2017-12-13T00:43:53.443Z,2.86
2017-12-13T00:44:53.456Z,2.82
2017-12-13T00:45:53.473Z,2.74
2017-12-13T00:46:53.480Z,2.71
2017-12-13T00:47:53.290Z,2.86
2017-12-13T00:48:53.505Z,2.85
2017-12-13T00:49:53.264Z,2.8
2017-12-13T00:50:53.589Z,2.75
2017-12-13T00:51:53.542Z,2.69
2017-12-13T00:52:53.048Z,2.89
2017-12-13T00:53:53.320Z,2.95
2017-12-13T00:54:53.328Z,2.83
2017-12-13T00:55:53.596Z,2.82
2017-12-13T00:56:53.356Z,2.72
2017-12-13T00:57:53.619Z,2.85
2017-12-13T00:58:53.124Z,2.82
2017-12-13T00:59:53.139Z,2.85
2017-12-13T01:00:53.402Z,2.83
2017-12-13T01:01:53.165Z,2.85
2017-12-13T01:02:53.729Z,2.83
2017-12-13T01:03:53.435Z,2.83
2017-12-13T01:04:53.456Z,2.82
2017-12-13T01:05:53.465Z,2.86
2017-12-13T01:06:53.474Z,2.82
2017-12-13T01:07:53.742Z,2.85
2017-12-13T01:08:53.750Z,2.83
2017-12-13T01:09:53.513Z,2.82
2017-12-13T01:10:53.780Z,2.67
2017-12-13T01:11:53.540Z,2.69
2017-12-13T01:12:53.806Z,2.69
2017-12-13T01:13:53.819Z,2.6
2017-12-13T01:14:53.828Z,2.64
2017-12-13T01:15:53.842Z,2.77
2017-12-13T01:16:53.599Z,2.71
2017-12-13T01:17:53.916Z,2.74
2017-12-13T01:18:53.628Z,2.62
2017-12-13T01:19:53.389Z,2.72
2017-12-13T01:20:53.652Z,2.69
2017-12-13T01:21:53.666Z,2.65
2017-12-13T01:22:53.923Z,2.69
2017-12-13T01:23:53.936Z,2.65
2017-12-13T01:24:53.949Z,2.56
2017-12-13T01:25:53.459Z,2.75
2017-12-13T01:26:53.976Z,2.69
2017-12-13T01:27:53.501Z,2.67
2017-12-13T01:28:54.011Z,2.61
2017-12-13T01:29:54.010Z,2.54
2017-12-13T01:30:53.522Z,2.49
2017-12-13T01:31:54.035Z,2.44
2017-12-13T01:32:53.852Z,2.5
2017-12-13T01:33:53.559Z,2.57
2017-12-13T01:34:53.576Z,2.53
2017-12-13T01:35:53.584Z,2.56
2017-12-13T01:36:54.097Z,2.47
2017-12-13T01:37:54.113Z,2.56
2017-12-13T01:38:53.621Z,2.38
2017-12-13T01:39:54.139Z,2.54
2017-12-13T01:40:53.899Z,2.46
2017-12-13T01:41:54.155Z,2.49
2017-12-13T01:42:53.921Z,2.42
2017-12-13T01:43:54.186Z,2.57
2017-12-13T01:44:54.199Z,2.5
2017-12-13T01:45:54.217Z,2.39
2017-12-13T01:46:54.224Z,2.53
2017-12-13T01:47:54.291Z,2.54
2017-12-13T01:48:54.245Z,2.39
2017-12-13T01:49:54.259Z,2.42
2017-12-13T01:50:54.287Z,2.43
2017-12-13T01:51:54.033Z,2.38
2017-12-13T01:52:54.310Z,2.44
2017-12-13T01:53:54.056Z,2.39
2017-12-13T01:54:54.331Z,2.46
2017-12-13T01:55:54.333Z,2.35
2017-12-13T01:56:54.344Z,2.32
2017-12-13T01:57:54.366Z,2.36
2017-12-13T01:58:54.374Z,2.42
2017-12-13T01:59:54.393Z,2.53
2017-12-13T02:00:54.399Z,2.53
2017-12-13T02:01:54.154Z,2.53
2017-12-13T02:02:54.217Z,2.5
2017-12-13T02:03:54.433Z,2.39
2017-12-13T02:04:54.445Z,2.5
2017-12-13T02:05:54.206Z,2.49
2017-12-13T02:06:54.216Z,2.46
2017-12-13T02:07:54.483Z,2.51
2017-12-13T02:08:54.242Z,2.56
2017-12-13T02:09:54.508Z,2.51
2017-12-13T02:10:54.527Z,2.44
2017-12-13T02:11:54.287Z,2.53
2017-12-13T02:12:54.546Z,2.44
2017-12-13T02:13:54.053Z,2.49
2017-12-13T02:14:54.319Z,2.35
2017-12-13T02:15:54.330Z,2.35
2017-12-13T02:16:54.091Z,2.33
2017-12-13T02:17:54.353Z,2.29
2017-12-13T02:18:54.112Z,2.36
2017-12-13T02:19:54.684Z,2.22
2017-12-13T02:20:54.645Z,2.28
2017-12-13T02:21:54.406Z,2.28
2017-12-13T02:22:54.667Z,2.33
2017-12-13T02:23:54.176Z,2.28
2017-12-13T02:24:54.691Z,2.32
2017-12-13T02:25:54.203Z,2.33
2017-12-13T02:26:54.211Z,2.31
2017-12-13T02:27:54.477Z,2.29
2017-12-13T02:28:54.486Z,2.29
2017-12-13T02:29:54.754Z,2.2
2017-12-13T02:30:54.513Z,2.25
2017-12-13T02:31:54.777Z,2.11
2017-12-13T02:32:54.786Z,2.11
2017-12-13T02:33:54.802Z,2.2
2017-12-13T02:34:54.865Z,2.2
2017-12-13T02:35:54.838Z,2.22
2017-12-13T02:36:54.834Z,2.26
2017-12-13T02:37:54.859Z,2.26
2017-12-13T02:38:54.861Z,2.2
2017-12-13T02:39:54.622Z,2.17
2017-12-13T02:40:54.638Z,2.14
2017-12-13T02:41:54.902Z,2.25
2017-12-13T02:42:54.929Z,2.26
2017-12-13T02:43:54.925Z,2.26
2017-12-13T02:44:54.952Z,2.24
2017-12-13T02:45:54.955Z,2.22
2017-12-13T02:46:54.960Z,2.2
2017-12-13T02:47:54.727Z,2.18
2017-12-13T02:48:54.996Z,2.07
2017-12-13T02:49:55.047Z,2.11
2017-12-13T02:50:55.014Z,2.04
2017-12-13T02:51:55.031Z,2.11
2017-12-13T02:52:54.532Z,2.14
2017-12-13T02:53:54.541Z,2.11
2017-12-13T02:54:55.163Z,2.14
2017-12-13T02:55:55.070Z,2.15
2017-12-13T02:56:55.087Z,2.06
2017-12-13T02:57:55.103Z,2.08
2017-12-13T02:58:55.110Z,2.15
2017-12-13T02:59:54.872Z,2.13
2017-12-13T03:00:54.880Z,2.18
2017-12-13T03:01:54.894Z,2.18
2017-12-13T03:02:54.904Z,2.24
2017-12-13T03:03:55.184Z,2.28
2017-12-13T03:04:55.236Z,2.25
2017-12-13T03:05:55.191Z,2.1
2017-12-13T03:06:55.210Z,2.17
2017-12-13T03:07:55.216Z,2.13
2017-12-13T03:08:54.994Z,2.08
2017-12-13T03:09:55.240Z,2.11
2017-12-13T03:10:55.252Z,2.17
2017-12-13T03:11:55.263Z,2.14
2017-12-13T03:12:55.274Z,2.29
2017-12-13T03:13:55.291Z,2.1
2017-12-13T03:14:55.052Z,2.1
2017-12-13T03:15:55.311Z,2.1
2017-12-13T03:16:55.072Z,2.11
2017-12-13T03:17:55.346Z,2.18
2017-12-13T03:18:55.352Z,2.08
2017-12-13T03:19:55.158Z,2.13
2017-12-13T03:20:55.380Z,2.13
2017-12-13T03:21:55.137Z,2.13
2017-12-13T03:22:55.402Z,2.1
2017-12-13T03:23:55.175Z,2.24
2017-12-13T03:24:55.171Z,2.2
2017-12-13T03:25:55.435Z,2.14
2017-12-13T03:26:55.195Z,2.17
2017-12-13T03:27:55.210Z,2.14
2017-12-13T03:28:55.474Z,2.24
2017-12-13T03:29:55.232Z,2.29
2017-12-13T03:30:55.502Z,2.15
2017-12-13T03:31:55.258Z,2.07
2017-12-13T03:32:55.271Z,2.14
2017-12-13T03:33:55.279Z,2.2
2017-12-13T03:34:55.596Z,2.17
2017-12-13T03:35:55.306Z,2.18
2017-12-13T03:36:55.570Z,2.25
2017-12-13T03:37:55.588Z,2.18
2017-12-13T03:38:55.594Z,2.07
2017-12-13T03:39:55.616Z,2.13
2017-12-13T03:40:55.364Z,2.07
2017-12-13T03:41:55.381Z,2.2
2017-12-13T03:42:55.642Z,2.13
2017-12-13T03:43:55.650Z,2.22
2017-12-13T03:44:55.410Z,2.22
2017-12-13T03:45:55.680Z,2.24
2017-12-13T03:46:55.685Z,2.31
2017-12-13T03:47:55.711Z,2.2
2017-12-13T03:48:55.720Z,2.25
2017-12-13T03:49:55.778Z,2.22
2017-12-13T03:50:55.744Z,2.24
2017-12-13T03:51:55.246Z,2.22
2017-12-13T03:52:55.254Z,2.31
2017-12-13T03:53:55.263Z,2.25
2017-12-13T03:54:55.532Z,2.22
2017-12-13T03:55:55.794Z,2.15
2017-12-13T03:56:55.563Z,2.22
2017-12-13T03:57:55.313Z,2.1
2017-12-13T03:58:55.835Z,2.08
2017-12-13T03:59:55.593Z,2.02
2017-12-13T04:00:55.351Z,2.06
2017-12-13T04:01:55.870Z,2.02
2017-12-13T04:02:55.878Z,2.1
2017-12-13T04:03:55.894Z,2.13
2017-12-13T04:04:55.700Z,2
2017-12-13T04:05:55.933Z,2.08
2017-12-13T04:06:55.931Z,2.04
2017-12-13T04:07:55.940Z,2.1
2017-12-13T04:08:55.948Z,2.1
2017-12-13T04:09:55.713Z,2.07
2017-12-13T04:10:55.724Z,2.04
2017-12-13T04:11:55.987Z,2.02
2017-12-13T04:12:56.001Z,2.1
2017-12-13T04:13:56.009Z,2.17
2017-12-13T04:14:56.023Z,2.04
2017-12-13T04:15:56.041Z,2.02
2017-12-13T04:16:55.744Z,2.04
2017-12-13T04:17:55.804Z,1.95
2017-12-13T04:18:56.073Z,2.07
2017-12-13T04:19:56.127Z,2.06
2017-12-13T04:20:56.096Z,1.87
2017-12-13T04:21:56.106Z,1.87
2017-12-13T04:22:56.123Z,1.95
2017-12-13T04:23:55.879Z,2.02
2017-12-13T04:24:56.140Z,1.97
2017-12-13T04:25:56.152Z,1.95
2017-12-13T04:26:56.165Z,1.91
2017-12-13T04:27:56.179Z,1.88
2017-12-13T04:28:56.187Z,1.92
2017-12-13T04:29:56.200Z,1.85
2017-12-13T04:30:56.210Z,1.78
2017-12-13T04:31:55.975Z,1.87
2017-12-13T04:32:55.987Z,1.76
2017-12-13T04:33:56.249Z,1.71
2017-12-13T04:34:56.314Z,1.71
2017-12-13T04:35:56.272Z,1.68
2017-12-13T04:36:56.301Z,1.63
2017-12-13T04:37:56.293Z,1.73
2017-12-13T04:38:56.067Z,1.63
2017-12-13T04:39:56.319Z,1.63
2017-12-13T04:40:56.337Z,1.6
2017-12-13T04:41:56.341Z,1.66
2017-12-13T04:42:56.359Z,1.76
2017-12-13T04:43:56.367Z,1.59
2017-12-13T04:44:56.378Z,1.76
2017-12-13T04:45:56.141Z,1.59
2017-12-13T04:46:56.398Z,1.7
2017-12-13T04:47:56.465Z,1.68
2017-12-13T04:48:56.425Z,1.62
2017-12-13T04:49:56.487Z,1.62
2017-12-13T04:50:56.195Z,1.62
2017-12-13T04:51:56.207Z,1.66
2017-12-13T04:52:56.475Z,1.68
2017-12-13T04:53:56.487Z,1.6
2017-12-13T04:54:56.505Z,1.77
2017-12-13T04:55:56.510Z,1.7
2017-12-13T04:56:56.520Z,1.68
2017-12-13T04:57:56.273Z,1.7
2017-12-13T04:58:56.286Z,1.63
2017-12-13T04:59:56.048Z,1.71
2017-12-13T05:00:56.563Z,1.59
2017-12-13T05:01:56.070Z,1.74
2017-12-13T05:02:56.587Z,1.59
2017-12-13T05:03:56.599Z,1.6
2017-12-13T05:04:56.669Z,1.6
2017-12-13T05:05:56.626Z,1.62
2017-12-13T05:06:56.637Z,1.73
2017-12-13T05:07:56.643Z,1.53
2017-12-13T05:08:56.659Z,1.59
2017-12-13T05:09:56.418Z,1.66
2017-12-13T05:10:56.684Z,1.52
2017-12-13T05:11:56.697Z,1.48
2017-12-13T05:12:56.703Z,1.42
2017-12-13T05:13:56.720Z,1.52
2017-12-13T05:14:56.476Z,1.31
2017-12-13T05:15:56.766Z,1.3
2017-12-13T05:16:56.756Z,1.44
2017-12-13T05:17:56.511Z,1.52
2017-12-13T05:18:56.778Z,1.49
2017-12-13T05:19:56.279Z,1.49
2017-12-13T05:20:56.543Z,1.55
2017-12-13T05:21:56.806Z,1.63
2017-12-13T05:22:56.820Z,1.52
2017-12-13T05:23:56.575Z,1.45
2017-12-13T05:24:56.846Z,1.58
2017-12-13T05:25:56.864Z,1.55
2017-12-13T05:26:56.868Z,1.62
2017-12-13T05:27:56.881Z,1.62
2017-12-13T05:28:56.894Z,1.67
2017-12-13T05:29:56.658Z,1.63
2017-12-13T05:30:56.926Z,1.74
2017-12-13T05:31:56.422Z,1.49
2017-12-13T05:32:56.938Z,1.49
2017-12-13T05:33:57.002Z,1.58
2017-12-13T05:34:56.704Z,1.56
2017-12-13T05:35:56.971Z,1.56
2017-12-13T05:36:56.985Z,1.68
2017-12-13T05:37:57.059Z,1.62
2017-12-13T05:38:57.003Z,1.55
2017-12-13T05:39:56.763Z,1.66
2017-12-13T05:40:56.772Z,1.59
2017-12-13T05:41:56.786Z,1.66
2017-12-13T05:42:57.070Z,1.56
2017-12-13T05:43:56.812Z,1.63
2017-12-13T05:44:56.574Z,1.49
2017-12-13T05:45:57.092Z,1.42
2017-12-13T05:46:57.104Z,1.49
2017-12-13T05:47:56.867Z,1.42
2017-12-13T05:48:56.619Z,1.45
2017-12-13T05:49:56.891Z,1.37
2017-12-13T05:50:56.897Z,1.44
2017-12-13T05:51:57.162Z,1.5
2017-12-13T05:52:56.968Z,1.48
2017-12-13T05:53:56.935Z,1.44
2017-12-13T05:54:56.943Z,1.44
2017-12-13T05:55:56.955Z,1.45
2017-12-13T05:56:57.222Z,1.48
2017-12-13T05:57:57.233Z,1.44
2017-12-13T05:58:56.738Z,1.5
2017-12-13T05:59:57.257Z,1.49
2017-12-13T06:00:57.264Z,1.42
2017-12-13T06:01:57.026Z,1.37
2017-12-13T06:02:57.294Z,1.32
2017-12-13T06:03:56.793Z,1.34
2017-12-13T06:04:57.059Z,1.41
2017-12-13T06:05:56.818Z,1.42
2017-12-13T06:06:57.338Z,1.28
2017-12-13T06:07:56.899Z,1.35
2017-12-13T06:08:57.107Z,1.41
2017-12-13T06:09:57.374Z,1.41
2017-12-13T06:10:57.390Z,1.49
2017-12-13T06:11:57.395Z,1.48
2017-12-13T06:12:57.407Z,1.42
2017-12-13T06:13:57.185Z,1.28
2017-12-13T06:14:57.428Z,1.44
2017-12-13T06:15:57.446Z,1.44
2017-12-13T06:16:57.461Z,1.34
2017-12-13T06:17:57.469Z,1.31
2017-12-13T06:18:57.478Z,1.42
2017-12-13T06:19:57.238Z,1.45
2017-12-13T06:20:57.507Z,1.35
2017-12-13T06:21:57.513Z,1.4
2017-12-13T06:22:57.572Z,1.45
2017-12-13T06:23:57.535Z,1.48
2017-12-13T06:24:57.041Z,1.5
2017-12-13T06:25:57.559Z,1.44
2017-12-13T06:26:57.575Z,1.45
2017-12-13T06:27:57.595Z,1.67
2017-12-13T06:28:57.343Z,1.55
2017-12-13T06:29:57.355Z,1.49
2017-12-13T06:30:57.616Z,1.53
2017-12-13T06:31:57.377Z,1.56
2017-12-13T06:32:57.390Z,1.62
2017-12-13T06:33:57.653Z,1.48
2017-12-13T06:34:57.665Z,1.52
2017-12-13T06:35:57.432Z,1.48
2017-12-13T06:36:57.437Z,1.55
2017-12-13T06:37:57.760Z,1.56
2017-12-13T06:38:57.720Z,1.52
2017-12-13T06:39:57.469Z,1.66
2017-12-13T06:40:57.733Z,1.6
2017-12-13T06:41:57.498Z,1.58
2017-12-13T06:42:57.517Z,1.49
2017-12-13T06:43:57.520Z,1.62
2017-12-13T06:44:57.529Z,1.66
2017-12-13T06:45:57.544Z,1.71
2017-12-13T06:46:57.573Z,1.73
2017-12-13T06:47:57.822Z,1.74
2017-12-13T06:48:57.325Z,1.66
2017-12-13T06:49:57.587Z,1.55
2017-12-13T06:50:57.598Z,1.67
2017-12-13T06:51:57.609Z,1.74
2017-12-13T06:52:57.925Z,1.74
2017-12-13T06:53:57.638Z,1.8
2017-12-13T06:54:57.648Z,1.66
2017-12-13T06:55:58.034Z,1.49
2017-12-13T06:56:57.925Z,1.56
2017-12-13T06:57:57.940Z,1.66
2017-12-13T06:58:57.694Z,1.7
2017-12-13T06:59:57.964Z,1.62
2017-12-13T07:00:57.971Z,1.63
2017-12-13T07:01:57.978Z,1.55
2017-12-13T07:02:57.748Z,1.44
2017-12-13T07:03:58.012Z,1.52
2017-12-13T07:04:57.773Z,1.62
2017-12-13T07:05:58.029Z,1.59
2017-12-13T07:06:57.791Z,1.7
2017-12-13T07:07:58.106Z,1.62
2017-12-13T07:08:58.101Z,1.58
2017-12-13T07:09:58.077Z,1.63
2017-12-13T07:10:57.842Z,1.63
2017-12-13T07:11:58.105Z,1.52
2017-12-13T07:12:58.113Z,1.48
2017-12-13T07:13:58.124Z,1.3
2017-12-13T07:14:57.884Z,1.45
2017-12-13T07:15:58.150Z,1.52
2017-12-13T07:16:57.910Z,1.62
2017-12-13T07:17:57.921Z,1.63
2017-12-13T07:18:57.936Z,1.6
2017-12-13T07:19:57.945Z,1.63
2017-12-13T07:20:57.704Z,1.6
2017-12-13T07:21:58.223Z,1.71
2017-12-13T07:22:58.029Z,1.71
2017-12-13T07:23:58.256Z,1.67
2017-12-13T07:24:58.260Z,1.68
2017-12-13T07:25:58.012Z,1.77
2017-12-13T07:26:58.280Z,1.77
2017-12-13T07:27:58.039Z,1.89
2017-12-13T07:28:58.051Z,1.73
2017-12-13T07:29:58.058Z,1.81
2017-12-13T07:30:58.076Z,1.92
2017-12-13T07:31:58.336Z,1.95
2017-12-13T07:32:58.119Z,1.97
2017-12-13T07:33:58.371Z,1.88
2017-12-13T07:34:58.377Z,2.04
2017-12-13T07:35:58.390Z,2.13
2017-12-13T07:36:58.403Z,2.07
2017-12-13T07:37:58.216Z,2.2
2017-12-13T07:38:58.175Z,2.2
2017-12-13T07:39:58.186Z,2.17
2017-12-13T07:40:57.944Z,2.29
2017-12-13T07:41:58.213Z,2.18
2017-12-13T07:42:58.477Z,2.24
2017-12-13T07:43:58.008Z,2.36
2017-12-13T07:44:58.501Z,2.56
2017-12-13T07:45:58.508Z,2.61
2017-12-13T07:46:58.268Z,2.57
2017-12-13T07:47:58.533Z,2.69
2017-12-13T07:48:58.559Z,2.67
2017-12-13T07:49:58.558Z,2.54
2017-12-13T07:50:58.325Z,2.64
2017-12-13T07:51:58.336Z,2.6
2017-12-13T07:52:58.394Z,2.68
2017-12-13T07:53:58.104Z,2.69
2017-12-13T07:54:58.122Z,2.79
2017-12-13T07:55:58.130Z,2.92
2017-12-13T07:56:58.653Z,2.86
2017-12-13T07:57:58.660Z,2.75
2017-12-13T07:58:58.185Z,2.72
2017-12-13T07:59:58.436Z,2.8
2017-12-13T08:00:58.705Z,2.71
2017-12-13T08:01:58.206Z,2.67
2017-12-13T08:02:58.727Z,2.79
2017-12-13T08:03:58.485Z,2.8
2017-12-13T08:04:58.939Z,2.85
2017-12-13T08:05:58.765Z,2.68
2017-12-13T08:06:58.777Z,2.71
2017-12-13T08:07:58.845Z,2.85
2017-12-13T08:08:58.297Z,2.89
2017-12-13T08:09:58.795Z,2.9
2017-12-13T08:10:58.554Z,2.93
2017-12-13T08:11:58.820Z,3.01
2017-12-13T08:12:58.582Z,3
2017-12-13T08:13:58.845Z,2.98
2017-12-13T08:14:58.863Z,3.11
2017-12-13T08:15:58.620Z,3.21
2017-12-13T08:16:58.639Z,3.07
2017-12-13T08:17:58.921Z,2.95
2017-12-13T08:18:58.938Z,3.01
2017-12-13T08:19:58.690Z,3.14
2017-12-13T08:20:58.958Z,3.08
2017-12-13T08:21:58.969Z,3.05
2017-12-13T08:22:59.189Z,3.03
2017-12-13T08:23:58.996Z,3.07
2017-12-13T08:24:59.014Z,2.95
2017-12-13T08:25:58.769Z,2.93
2017-12-13T08:26:58.782Z,3.03
2017-12-13T08:27:58.803Z,2.98
2017-12-13T08:28:59.068Z,3
2017-12-13T08:29:59.076Z,3
2017-12-13T08:30:58.581Z,3.14
2017-12-13T08:31:58.596Z,3.16
2017-12-13T08:32:59.121Z,3.16
2017-12-13T08:33:58.622Z,3.11
2017-12-13T08:34:58.888Z,3.07
2017-12-13T08:35:59.154Z,3.16
2017-12-13T08:36:59.166Z,3.23
2017-12-13T08:37:59.229Z,3.26
2017-12-13T08:38:58.941Z,3.22
2017-12-13T08:39:58.953Z,3.37
2017-12-13T08:40:59.223Z,3.37
2017-12-13T08:41:59.236Z,3.44
2017-12-13T08:42:58.998Z,3.34
2017-12-13T08:43:59.265Z,3.31
2017-12-13T08:44:59.273Z,3.21
2017-12-13T08:45:59.289Z,3.23
2017-12-13T08:46:59.306Z,3.18
2017-12-13T08:47:59.391Z,3.14
2017-12-13T08:48:59.334Z,3.07
2017-12-13T08:49:59.338Z,3.14
2017-12-13T08:50:58.844Z,3.1
2017-12-13T08:51:59.122Z,3.13
2017-12-13T08:52:59.630Z,3.07
2017-12-13T08:53:59.142Z,3.16
2017-12-13T08:54:59.403Z,3.31
2017-12-13T08:55:59.414Z,3.42
2017-12-13T08:56:59.179Z,3.65
2017-12-13T08:57:59.195Z,3.65
2017-12-13T08:58:59.223Z,3.76
2017-12-13T08:59:59.472Z,3.78
2017-12-13T09:00:59.482Z,3.81
2017-12-13T09:01:59.497Z,3.78
2017-12-13T09:02:59.546Z,3.99
2017-12-13T09:03:59.269Z,4.01
2017-12-13T09:04:59.538Z,3.8
2017-12-13T09:05:59.304Z,3.99
2017-12-13T09:06:59.563Z,4.13
2017-12-13T09:07:59.378Z,4.05
2017-12-13T09:08:59.085Z,4.12
2017-12-13T09:09:59.363Z,4.3
2017-12-13T09:10:59.110Z,4.26
2017-12-13T09:11:59.630Z,4.19
2017-12-13T09:12:59.391Z,4.24
2017-12-13T09:13:59.403Z,4.35
2017-12-13T09:14:59.717Z,4.53
2017-12-13T09:15:59.428Z,4.38
2017-12-13T09:16:59.751Z,4.37
2017-12-13T09:17:59.477Z,4.41
2017-12-13T09:18:59.724Z,4.34
2017-12-13T09:19:59.492Z,4.5
2017-12-13T09:20:59.503Z,4.67
2017-12-13T09:21:59.515Z,4.74
2017-12-13T09:22:59.831Z,4.75
2017-12-13T09:23:59.798Z,4.7
2017-12-13T09:24:59.816Z,4.67
2017-12-13T09:25:59.576Z,4.71
2017-12-13T09:26:59.328Z,4.73
2017-12-13T09:27:59.347Z,4.87
2017-12-13T09:28:59.862Z,4.8
2017-12-13T09:29:59.876Z,4.71
2017-12-13T09:30:59.896Z,4.87
2017-12-13T09:31:59.907Z,4.89
2017-12-13T09:32:59.668Z,5.04
2017-12-13T09:33:59.935Z,5
2017-12-13T09:34:59.945Z,4.84
2017-12-13T09:35:59.960Z,4.96
2017-12-13T09:36:59.979Z,5.04
2017-12-13T09:38:00.044Z,5.25
2017-12-13T09:39:00.015Z,5.23
2017-12-13T09:40:00.022Z,5.33
2017-12-13T09:40:59.787Z,5.25
2017-12-13T09:42:00.119Z,5.46
2017-12-13T09:42:59.563Z,5.43
2017-12-13T09:43:59.826Z,5.29
2017-12-13T09:45:00.090Z,5.38
2017-12-13T09:46:00.120Z,5.39
2017-12-13T09:47:00.122Z,5.46
2017-12-13T09:47:59.882Z,5.66
2017-12-13T09:48:59.906Z,5.64
2017-12-13T09:49:59.658Z,5.86
2017-12-13T09:51:00.182Z,5.99
2017-12-13T09:52:00.197Z,5.99
2017-12-13T09:53:00.260Z,5.97
2017-12-13T09:54:00.233Z,5.75
2017-12-13T09:55:00.242Z,5.94
2017-12-13T09:56:00.016Z,6.09
2017-12-13T09:57:00.027Z,6.24
2017-12-13T09:58:00.139Z,6.54
2017-12-13T09:58:59.805Z,6.82
2017-12-13T10:00:00.328Z,7.11
2017-12-13T10:01:00.350Z,7.32
2017-12-13T10:02:00.369Z,7.76
2017-12-13T10:03:00.382Z,8.05
2017-12-13T10:04:00.401Z,8.13
2017-12-13T10:05:00.422Z,8.37
2017-12-13T10:06:00.440Z,8.81
2017-12-13T10:07:00.465Z,8.91
2017-12-13T10:08:00.528Z,8.97
2017-12-13T10:09:00.248Z,9.31
2017-12-13T10:10:00.520Z,9.68
2017-12-13T10:11:00.289Z,9.5
2017-12-13T10:12:00.565Z,9.55
2017-12-13T10:13:00.335Z,9.74
2017-12-13T10:14:00.355Z,9.92
2017-12-13T10:15:00.379Z,10.12
2017-12-13T10:16:00.418Z,10.33
2017-12-13T10:17:00.681Z,10.42
2017-12-13T10:18:00.701Z,9.98
2017-12-13T10:19:00.219Z,10.13
2017-12-13T10:20:00.746Z,10.61
2017-12-13T10:21:00.519Z,10.67
2017-12-13T10:22:00.794Z,10.86
2017-12-13T10:23:00.681Z,10.86
2017-12-13T10:24:00.588Z,11.05
2017-12-13T10:25:00.620Z,11.35
2017-12-13T10:26:00.892Z,11.37
2017-12-13T10:27:00.913Z,11.47
2017-12-13T10:28:00.690Z,11.29
2017-12-13T10:29:00.782Z,11.33
2017-12-13T10:30:00.993Z,11.66
2017-12-13T10:31:01.018Z,11.81
2017-12-13T10:32:01.040Z,12.03
2017-12-13T10:33:01.084Z,12.43
2017-12-13T10:34:01.093Z,12.78
2017-12-13T10:35:01.122Z,12.78
2017-12-13T10:36:01.143Z,12.4
2017-12-13T10:37:01.173Z,12.37
2017-12-13T10:38:00.739Z,12.47
2017-12-13T10:39:00.970Z,12.61
2017-12-13T10:40:00.997Z,12.78
2017-12-13T10:41:01.026Z,13.09
2017-12-13T10:42:01.307Z,13.13
2017-12-13T10:43:00.825Z,12.94
2017-12-13T10:44:01.103Z,12.9
2017-12-13T10:45:01.126Z,13.16
2017-12-13T10:46:01.416Z,12.7
2017-12-13T10:47:01.184Z,12.83
2017-12-13T10:48:01.464Z,13.04
2017-12-13T10:49:00.986Z,13.27
2017-12-13T10:50:01.517Z,13.74
2017-12-13T10:51:01.544Z,13.71
2017-12-13T10:52:01.568Z,13.67
2017-12-13T10:53:01.397Z,13.7
2017-12-13T10:54:01.117Z,13.72
2017-12-13T10:55:01.404Z,13.87
2017-12-13T10:56:01.422Z,13.9
2017-12-13T10:57:01.451Z,14.14
2017-12-13T10:58:01.733Z,14.37
2017-12-13T10:59:01.518Z,14.43
2017-12-13T11:00:01.541Z,14.78
2017-12-13T11:01:01.310Z,14.33
2017-12-13T11:02:01.843Z,14.35
2017-12-13T11:03:01.619Z,14.81
2017-12-13T11:04:01.650Z,15.21
2017-12-13T11:05:01.943Z,15.21
2017-12-13T11:06:01.703Z,15.31
2017-12-13T11:07:01.984Z,15.33
2017-12-13T11:08:02.014Z,15.43
2017-12-13T11:09:02.042Z,15.75
2017-12-13T11:10:02.074Z,15.9
2017-12-13T11:11:01.894Z,15.86
2017-12-13T11:12:02.126Z,15.57
2017-12-13T11:13:01.907Z,15.8
2017-12-13T11:14:02.195Z,15.97
2017-12-13T11:15:01.960Z,16.41
2017-12-13T11:16:02.237Z,16.33
2017-12-13T11:17:02.272Z,16.43
2017-12-13T11:18:02.301Z,16.72
2017-12-13T11:19:02.412Z,16.75
2017-12-13T11:20:02.102Z,16.66
2017-12-13T11:21:02.387Z,16.94
2017-12-13T11:22:02.411Z,16.93
2017-12-13T11:23:02.451Z,16.99
2017-12-13T11:24:02.224Z,16.89
2017-12-13T11:25:02.504Z,17.11
2017-12-13T11:26:02.281Z,16.99
2017-12-13T11:27:02.366Z,16.57
2017-12-13T11:28:02.594Z,16.68
2017-12-13T11:29:02.624Z,16.84
2017-12-13T11:30:02.656Z,16.76
2017-12-13T11:31:02.179Z,16.94
2017-12-13T11:32:02.462Z,17.12
2017-12-13T11:33:02.491Z,17.36
2017-12-13T11:34:02.775Z,17.16
2017-12-13T11:35:02.802Z,17.14
2017-12-13T11:36:02.578Z,16.6
2017-12-13T11:37:02.613Z,16.71
2017-12-13T11:38:02.892Z,16.71
2017-12-13T11:39:02.728Z,16.69
2017-12-13T11:40:02.964Z,17.08
2017-12-13T11:41:02.985Z,16.32
2017-12-13T11:42:03.071Z,16.02
2017-12-13T11:43:02.796Z,15.94
2017-12-13T11:44:02.829Z,16.04
2017-12-13T11:45:03.099Z,16.41
2017-12-13T11:46:03.748Z,16.61
2017-12-13T11:47:02.905Z,16.56
2017-12-13T11:48:03.189Z,16.72
2017-12-13T11:49:03.229Z,16.65
2017-12-13T11:50:03.249Z,17.15
2017-12-13T11:51:03.282Z,17.51
2017-12-13T11:52:03.436Z,17.78
2017-12-13T11:53:03.340Z,17.67
2017-12-13T11:54:03.118Z,17.94
2017-12-13T11:55:03.149Z,17.97
2017-12-13T11:56:03.437Z,17.89
2017-12-13T11:57:03.214Z,17.64
2017-12-13T11:58:03.504Z,17.51
2017-12-13T11:59:03.270Z,17.89
2017-12-13T12:00:03.304Z,18.05
2017-12-13T12:01:03.381Z,18.44
2017-12-13T12:02:03.610Z,18.45
2017-12-13T12:03:03.643Z,18.13
2017-12-13T12:04:03.174Z,17.72
2017-12-13T12:05:03.708Z,17.9
2017-12-13T12:06:03.736Z,18.23
2017-12-13T12:07:03.263Z,17.7
2017-12-13T12:08:03.798Z,17.64
2017-12-13T12:09:03.829Z,17.7
2017-12-13T12:10:03.629Z,17.83
2017-12-13T12:11:03.902Z,18.03
2017-12-13T12:12:03.413Z,17.85
2017-12-13T12:13:03.970Z,17.94
2017-12-13T12:14:03.984Z,17.9
2017-12-13T12:15:03.758Z,17.89
2017-12-13T12:16:04.101Z,17.67
2017-12-13T12:17:04.071Z,17.94
2017-12-13T12:18:04.105Z,18.18
2017-12-13T12:19:03.631Z,18.5
2017-12-13T12:20:04.171Z,18.7
2017-12-13T12:21:03.947Z,18.37
2017-12-13T12:22:03.741Z,18.38
2017-12-13T12:23:04.259Z,18.58
2017-12-13T12:24:04.288Z,18.83
2017-12-13T12:25:03.828Z,18.8
2017-12-13T12:26:04.355Z,18.92
2017-12-13T12:27:04.133Z,19.18
2017-12-13T12:28:04.210Z,18.99
2017-12-13T12:29:04.442Z,19.18
2017-12-13T12:30:04.222Z,19.3
2017-12-13T12:31:04.689Z,19.29
2017-12-13T12:32:04.546Z,19.12
2017-12-13T12:33:04.576Z,19.16
2017-12-13T12:34:04.605Z,19.15
2017-12-13T12:35:04.377Z,19.41
2017-12-13T12:36:04.663Z,19.47
2017-12-13T12:37:04.187Z,19.36
2017-12-13T12:38:04.725Z,19.4
2017-12-13T12:39:04.760Z,19.26
2017-12-13T12:40:04.788Z,19.29
2017-12-13T12:41:04.629Z,19.12
2017-12-13T12:42:04.861Z,19.67
2017-12-13T12:43:04.378Z,19.74
2017-12-13T12:44:04.679Z,19.12
2017-12-13T12:45:04.697Z,19.12
2017-12-13T12:46:04.769Z,19.14
2017-12-13T12:47:05.008Z,19.76
2017-12-13T12:48:05.036Z,19.74
2017-12-13T12:49:04.813Z,19.85
2017-12-13T12:50:04.846Z,20.22
2017-12-13T12:51:04.628Z,19.44
2017-12-13T12:52:05.166Z,19.18
2017-12-13T12:53:05.190Z,19.18
2017-12-13T12:54:05.222Z,19.64
2017-12-13T12:55:04.953Z,19.92
2017-12-13T12:56:05.288Z,20.06
2017-12-13T12:57:05.317Z,19.91
2017-12-13T12:58:05.112Z,20.07
2017-12-13T12:59:04.873Z,20.51
2017-12-13T13:00:04.902Z,20.55
2017-12-13T13:01:04.986Z,20.19
2017-12-13T13:02:05.220Z,20.52
2017-12-13T13:03:05.251Z,20.77
2017-12-13T13:04:05.279Z,20.58
2017-12-13T13:05:05.558Z,20.55
2017-12-13T13:06:05.596Z,20.26
2017-12-13T13:07:05.119Z,20.36
2017-12-13T13:08:05.399Z,20.28
2017-12-13T13:09:05.680Z,20.37
2017-12-13T13:10:05.205Z,20.32
2017-12-13T13:11:05.500Z,19.77
2017-12-13T13:12:05.540Z,19.47
2017-12-13T13:13:05.841Z,19.37
2017-12-13T13:14:05.864Z,18.89
2017-12-13T13:15:05.624Z,18.4
2017-12-13T13:16:05.894Z,17.8